sensor_id;sensor_type;location;lat;lon;timestamp;temperature;humidity
12948;DHT22;6539;49.476;8.484;2022-10-16T00:01:31;17.40;99.90
12948;DHT22;6539;49.476;8.484;2022-10-16T00:03:58;17.10;99.90
12948;DHT22;6539;49.476;8.484;2022-10-16T00:06:26;17.40;99.90
12948;DHT22;6539;49.476;8.484;2022-10-16T00:08:55;16.80;99.90
12948;DHT22;6539;49.476;8.484;2022-10-16T00:11:27;17.40;99.90
12948;DHT22;6539;49.476;8.484;2022-10-16T00:13:57;17.20;99.90
12948;DHT22;6539;49.476;8.484;2022-10-16T00:16:28;17.40;99.90
12948;DHT22;6539;49.476;8.484;2022-10-16T00:18:57;17.30;99.90
12948;DHT22;6539;49.476;8.484;2022-10-16T00:21:28;17.50;99.90
12948;DHT22;6539;49.476;8.484;2022-10-16T00:24:03;17.40;99.90
12948;DHT22;6539;49.476;8.484;2022-10-16T00:26:34;17.30;99.90
12948;DHT22;6539;49.476;8.484;2022-10-16T00:29:04;17.70;99.90
12948;DHT22;6539;49.476;8.484;2022-10-16T00:34:00;17.60;99.90
12948;DHT22;6539;49.476;8.484;2022-10-16T00:36:28;17.20;99.90
12948;DHT22;6539;49.476;8.484;2022-10-16T00:38:57;17.20;99.90
12948;DHT22;6539;49.476;8.484;2022-10-16T00:41:26;17.40;99.90
12948;DHT22;6539;49.476;8.484;2022-10-16T00:44:00;17.10;99.90
12948;DHT22;6539;49.476;8.484;2022-10-16T00:49:17;17.30;99.90
12948;DHT22;6539;49.476;8.484;2022-10-16T00:51:49;17.40;99.90
12948;DHT22;6539;49.476;8.484;2022-10-16T00:54:21;17.10;99.90
12948;DHT22;6539;49.476;8.484;2022-10-16T00:56:53;17.40;99.90
12948;DHT22;6539;49.476;8.484;2022-10-16T00:59:38;17.20;99.90
12948;DHT22;6539;49.476;8.484;2022-10-16T01:02:08;17.60;99.90
12948;DHT22;6539;49.476;8.484;2022-10-16T01:04:41;17.20;99.90
12948;DHT22;6539;49.476;8.484;2022-10-16T01:07:24;17.40;99.90
12948;DHT22;6539;49.476;8.484;2022-10-16T01:28:54;17.50;99.90
12948;DHT22;6539;49.476;8.484;2022-10-16T01:31:29;17.40;99.90
12948;DHT22;6539;49.476;8.484;2022-10-16T01:34:16;17.40;99.90
12948;DHT22;6539;49.476;8.484;2022-10-16T01:36:52;17.50;99.90
12948;DHT22;6539;49.476;8.484;2022-10-16T01:39:24;17.00;99.90
12948;DHT22;6539;49.476;8.484;2022-10-16T01:42:01;17.20;99.90
12948;DHT22;6539;49.476;8.484;2022-10-16T01:44:36;17.40;99.90
12948;DHT22;6539;49.476;8.484;2022-10-16T01:47:10;17.50;99.90
12948;DHT22;6539;49.476;8.484;2022-10-16T01:49:39;17.10;99.90
12948;DHT22;6539;49.476;8.484;2022-10-16T01:52:19;17.40;99.90
12948;DHT22;6539;49.476;8.484;2022-10-16T01:54:50;16.60;99.90
12948;DHT22;6539;49.476;8.484;2022-10-16T01:57:24;17.50;99.90
12948;DHT22;6539;49.476;8.484;2022-10-16T01:59:56;17.20;99.90
12948;DHT22;6539;49.476;8.484;2022-10-16T02:02:28;17.10;99.90
12948;DHT22;6539;49.476;8.484;2022-10-16T02:05:04;17.20;99.90
12948;DHT22;6539;49.476;8.484;2022-10-16T02:07:36;17.20;99.90
12948;DHT22;6539;49.476;8.484;2022-10-16T02:10:04;17.50;99.90
12948;DHT22;6539;49.476;8.484;2022-10-16T02:12:33;17.50;99.90
12948;DHT22;6539;49.476;8.484;2022-10-16T02:15:03;17.50;99.90
12948;DHT22;6539;49.476;8.484;2022-10-16T02:20:00;17.30;99.90
12948;DHT22;6539;49.476;8.484;2022-10-16T02:22:43;17.10;99.90
12948;DHT22;6539;49.476;8.484;2022-10-16T02:25:30;17.30;99.90
12948;DHT22;6539;49.476;8.484;2022-10-16T02:28:19;17.40;99.90
12948;DHT22;6539;49.476;8.484;2022-10-16T02:30:58;17.10;99.90
12948;DHT22;6539;49.476;8.484;2022-10-16T02:33:29;17.00;99.90
12948;DHT22;6539;49.476;8.484;2022-10-16T02:35:57;17.00;99.90
12948;DHT22;6539;49.476;8.484;2022-10-16T02:40:58;17.00;99.90
12948;DHT22;6539;49.476;8.484;2022-10-16T02:43:25;17.30;99.90
12948;DHT22;6539;49.476;8.484;2022-10-16T02:45:53;17.50;99.90
12948;DHT22;6539;49.476;8.484;2022-10-16T02:48:19;16.90;99.90
12948;DHT22;6539;49.476;8.484;2022-10-16T02:53:13;17.30;99.90
12948;DHT22;6539;49.476;8.484;2022-10-16T02:55:41;17.20;99.90
12948;DHT22;6539;49.476;8.484;2022-10-16T02:58:08;17.30;99.90
12948;DHT22;6539;49.476;8.484;2022-10-16T03:00:33;17.50;99.90
12948;DHT22;6539;49.476;8.484;2022-10-16T03:03:01;17.50;99.90
12948;DHT22;6539;49.476;8.484;2022-10-16T03:07:58;17.50;99.90
12948;DHT22;6539;49.476;8.484;2022-10-16T03:10:26;17.30;99.90
12948;DHT22;6539;49.476;8.484;2022-10-16T03:22:41;17.20;99.90
12948;DHT22;6539;49.476;8.484;2022-10-16T03:27:35;16.90;99.90
12948;DHT22;6539;49.476;8.484;2022-10-16T03:30:04;16.90;99.90
12948;DHT22;6539;49.476;8.484;2022-10-16T03:32:31;17.00;99.90
12948;DHT22;6539;49.476;8.484;2022-10-16T03:34:56;17.00;99.90
12948;DHT22;6539;49.476;8.484;2022-10-16T03:37:25;16.80;99.90
12948;DHT22;6539;49.476;8.484;2022-10-16T03:39:50;16.90;99.90
12948;DHT22;6539;49.476;8.484;2022-10-16T03:44:43;17.30;99.90
12948;DHT22;6539;49.476;8.484;2022-10-16T03:47:09;17.20;99.90
12948;DHT22;6539;49.476;8.484;2022-10-16T03:49:37;17.00;99.90
12948;DHT22;6539;49.476;8.484;2022-10-16T03:54:28;16.90;99.90
12948;DHT22;6539;49.476;8.484;2022-10-16T03:56:54;16.90;99.90
12948;DHT22;6539;49.476;8.484;2022-10-16T03:59:20;17.10;99.90
12948;DHT22;6539;49.476;8.484;2022-10-16T04:01:45;17.40;99.90
12948;DHT22;6539;49.476;8.484;2022-10-16T04:04:11;17.40;99.90
12948;DHT22;6539;49.476;8.484;2022-10-16T04:06:39;16.90;99.90
12948;DHT22;6539;49.476;8.484;2022-10-16T04:09:05;17.30;99.90
12948;DHT22;6539;49.476;8.484;2022-10-16T04:11:31;17.60;99.90
12948;DHT22;6539;49.476;8.484;2022-10-16T04:14:01;17.40;99.90
12948;DHT22;6539;49.476;8.484;2022-10-16T04:16:28;17.40;99.90
12948;DHT22;6539;49.476;8.484;2022-10-16T04:21:19;17.20;99.90
12948;DHT22;6539;49.476;8.484;2022-10-16T04:23:48;17.20;99.90
12948;DHT22;6539;49.476;8.484;2022-10-16T04:26:14;17.30;99.90
12948;DHT22;6539;49.476;8.484;2022-10-16T04:28:40;17.40;99.90
12948;DHT22;6539;49.476;8.484;2022-10-16T04:31:07;17.40;99.90
12948;DHT22;6539;49.476;8.484;2022-10-16T04:33:33;17.50;99.90
12948;DHT22;6539;49.476;8.484;2022-10-16T04:35:59;17.30;99.90
12948;DHT22;6539;49.476;8.484;2022-10-16T04:40:52;17.20;99.90
12948;DHT22;6539;49.476;8.484;2022-10-16T04:43:19;17.40;99.90
12948;DHT22;6539;49.476;8.484;2022-10-16T04:45:48;17.30;99.90
12948;DHT22;6539;49.476;8.484;2022-10-16T04:48:17;17.30;99.90
12948;DHT22;6539;49.476;8.484;2022-10-16T04:50:50;16.90;99.90
12948;DHT22;6539;49.476;8.484;2022-10-16T04:53:19;17.20;99.90
12948;DHT22;6539;49.476;8.484;2022-10-16T04:55:45;17.30;99.90
12948;DHT22;6539;49.476;8.484;2022-10-16T04:58:11;17.00;99.90
12948;DHT22;6539;49.476;8.484;2022-10-16T05:00:39;17.20;99.90
12948;DHT22;6539;49.476;8.484;2022-10-16T05:05:41;17.40;99.90
12948;DHT22;6539;49.476;8.484;2022-10-16T05:08:08;16.90;99.90
12948;DHT22;6539;49.476;8.484;2022-10-16T05:10:36;17.10;99.90
12948;DHT22;6539;49.476;8.484;2022-10-16T05:15:31;17.50;99.90
12948;DHT22;6539;49.476;8.484;2022-10-16T05:17:56;17.30;99.90
12948;DHT22;6539;49.476;8.484;2022-10-16T05:20:22;17.20;99.90
12948;DHT22;6539;49.476;8.484;2022-10-16T05:25:17;16.90;99.90
12948;DHT22;6539;49.476;8.484;2022-10-16T05:27:47;17.00;99.90
12948;DHT22;6539;49.476;8.484;2022-10-16T05:30:16;16.80;99.90
12948;DHT22;6539;49.476;8.484;2022-10-16T05:32:49;17.20;99.90
12948;DHT22;6539;49.476;8.484;2022-10-16T05:35:19;16.90;99.90
12948;DHT22;6539;49.476;8.484;2022-10-16T05:37:46;16.70;99.90
12948;DHT22;6539;49.476;8.484;2022-10-16T05:40:12;16.80;99.90
12948;DHT22;6539;49.476;8.484;2022-10-16T05:42:40;17.20;99.90
12948;DHT22;6539;49.476;8.484;2022-10-16T05:45:10;17.10;99.90
12948;DHT22;6539;49.476;8.484;2022-10-16T05:47:39;16.90;99.90
12948;DHT22;6539;49.476;8.484;2022-10-16T05:50:12;17.00;99.90
12948;DHT22;6539;49.476;8.484;2022-10-16T05:52:40;17.30;99.90
12948;DHT22;6539;49.476;8.484;2022-10-16T05:57:32;17.00;99.90
12948;DHT22;6539;49.476;8.484;2022-10-16T06:02:26;17.20;99.90
12948;DHT22;6539;49.476;8.484;2022-10-16T06:04:55;17.30;99.90
12948;DHT22;6539;49.476;8.484;2022-10-16T06:09:52;17.20;99.90
12948;DHT22;6539;49.476;8.484;2022-10-16T06:12:19;17.10;99.90
12948;DHT22;6539;49.476;8.484;2022-10-16T06:14:46;16.90;99.90
12948;DHT22;6539;49.476;8.484;2022-10-16T06:19:46;17.40;99.90
12948;DHT22;6539;49.476;8.484;2022-10-16T06:22:14;17.20;99.90
12948;DHT22;6539;49.476;8.484;2022-10-16T06:27:08;17.40;99.90
12948;DHT22;6539;49.476;8.484;2022-10-16T06:29:36;16.90;99.90
12948;DHT22;6539;49.476;8.484;2022-10-16T06:32:04;17.40;99.90
12948;DHT22;6539;49.476;8.484;2022-10-16T06:34:30;17.20;99.90
12948;DHT22;6539;49.476;8.484;2022-10-16T06:36:58;16.80;99.90
12948;DHT22;6539;49.476;8.484;2022-10-16T06:39:24;16.90;99.90
12948;DHT22;6539;49.476;8.484;2022-10-16T06:44:16;17.40;99.90
12948;DHT22;6539;49.476;8.484;2022-10-16T06:49:10;16.80;99.90
12948;DHT22;6539;49.476;8.484;2022-10-16T06:51:36;17.40;99.90
12948;DHT22;6539;49.476;8.484;2022-10-16T06:54:06;17.60;99.90
12948;DHT22;6539;49.476;8.484;2022-10-16T06:56:34;17.20;99.90
12948;DHT22;6539;49.476;8.484;2022-10-16T07:01:32;17.90;99.90
12948;DHT22;6539;49.476;8.484;2022-10-16T07:03:58;17.40;99.90
12948;DHT22;6539;49.476;8.484;2022-10-16T07:06:26;17.20;99.90
12948;DHT22;6539;49.476;8.484;2022-10-16T07:08:52;17.30;99.90
12948;DHT22;6539;49.476;8.484;2022-10-16T07:11:21;17.00;99.90
12948;DHT22;6539;49.476;8.484;2022-10-16T07:13:48;17.30;99.90
12948;DHT22;6539;49.476;8.484;2022-10-16T07:16:20;17.40;99.90
12948;DHT22;6539;49.476;8.484;2022-10-16T07:18:48;17.60;99.90
12948;DHT22;6539;49.476;8.484;2022-10-16T07:21:19;17.30;99.90
12948;DHT22;6539;49.476;8.484;2022-10-16T07:23:50;17.40;99.90
12948;DHT22;6539;49.476;8.484;2022-10-16T07:26:19;17.70;99.90
12948;DHT22;6539;49.476;8.484;2022-10-16T07:31:14;17.40;99.90
12948;DHT22;6539;49.476;8.484;2022-10-16T07:33:43;17.70;99.90
12948;DHT22;6539;49.476;8.484;2022-10-16T07:36:11;17.40;99.90
12948;DHT22;6539;49.476;8.484;2022-10-16T07:38:40;17.40;99.90
12948;DHT22;6539;49.476;8.484;2022-10-16T07:41:11;17.50;99.90
12948;DHT22;6539;49.476;8.484;2022-10-16T07:43:45;17.40;99.90
12948;DHT22;6539;49.476;8.484;2022-10-16T07:46:12;17.30;99.90
12948;DHT22;6539;49.476;8.484;2022-10-16T07:48:39;17.40;99.90
12948;DHT22;6539;49.476;8.484;2022-10-16T07:51:08;17.30;99.90
12948;DHT22;6539;49.476;8.484;2022-10-16T07:56:02;17.60;99.90
12948;DHT22;6539;49.476;8.484;2022-10-16T07:58:33;17.30;99.90
12948;DHT22;6539;49.476;8.484;2022-10-16T08:01:07;17.90;99.90
12948;DHT22;6539;49.476;8.484;2022-10-16T08:03:34;15.30;99.90
12948;DHT22;6539;49.476;8.484;2022-10-16T08:06:01;17.50;99.90
12948;DHT22;6539;49.476;8.484;2022-10-16T08:08:28;17.90;99.90
12948;DHT22;6539;49.476;8.484;2022-10-16T08:10:55;17.70;99.90
12948;DHT22;6539;49.476;8.484;2022-10-16T08:13:25;17.60;99.90
12948;DHT22;6539;49.476;8.484;2022-10-16T08:15:55;17.80;99.90
12948;DHT22;6539;49.476;8.484;2022-10-16T08:18:21;17.80;99.90
12948;DHT22;6539;49.476;8.484;2022-10-16T08:20:57;18.00;99.90
12948;DHT22;6539;49.476;8.484;2022-10-16T08:23:25;18.10;99.90
12948;DHT22;6539;49.476;8.484;2022-10-16T08:25:55;17.50;99.90
12948;DHT22;6539;49.476;8.484;2022-10-16T08:28:24;17.80;99.90
12948;DHT22;6539;49.476;8.484;2022-10-16T08:30:49;18.00;99.90
12948;DHT22;6539;49.476;8.484;2022-10-16T08:33:20;17.40;99.90
12948;DHT22;6539;49.476;8.484;2022-10-16T08:35:52;17.40;99.90
12948;DHT22;6539;49.476;8.484;2022-10-16T08:38:19;17.60;99.90
12948;DHT22;6539;49.476;8.484;2022-10-16T08:40:46;17.40;99.90
12948;DHT22;6539;49.476;8.484;2022-10-16T08:46:21;18.10;99.90
12948;DHT22;6539;49.476;8.484;2022-10-16T08:49:09;18.00;99.90
12948;DHT22;6539;49.476;8.484;2022-10-16T08:51:44;18.10;99.90
12948;DHT22;6539;49.476;8.484;2022-10-16T08:54:40;17.60;99.90
12948;DHT22;6539;49.476;8.484;2022-10-16T08:57:17;17.90;99.90
12948;DHT22;6539;49.476;8.484;2022-10-16T08:59:48;17.80;99.90
12948;DHT22;6539;49.476;8.484;2022-10-16T09:02:31;18.00;99.90
12948;DHT22;6539;49.476;8.484;2022-10-16T09:08:26;17.80;99.90
12948;DHT22;6539;49.476;8.484;2022-10-16T09:23:34;19.40;99.90
12948;DHT22;6539;49.476;8.484;2022-10-16T09:26:02;19.50;99.90
12948;DHT22;6539;49.476;8.484;2022-10-16T09:28:30;19.90;99.90
12948;DHT22;6539;49.476;8.484;2022-10-16T09:30:56;19.80;99.90
12948;DHT22;6539;49.476;8.484;2022-10-16T09:33:27;19.80;99.90
12948;DHT22;6539;49.476;8.484;2022-10-16T09:35:58;19.80;99.90
12948;DHT22;6539;49.476;8.484;2022-10-16T09:38:30;20.20;99.90
12948;DHT22;6539;49.476;8.484;2022-10-16T09:40:59;20.00;99.90
12948;DHT22;6539;49.476;8.484;2022-10-16T09:43:34;20.00;99.90
12948;DHT22;6539;49.476;8.484;2022-10-16T09:46:21;20.10;99.90
12948;DHT22;6539;49.476;8.484;2022-10-16T09:48:49;19.90;99.90
12948;DHT22;6539;49.476;8.484;2022-10-16T09:54:14;20.20;99.90
12948;DHT22;6539;49.476;8.484;2022-10-16T09:56:41;20.40;99.90
12948;DHT22;6539;49.476;8.484;2022-10-16T09:59:22;20.10;99.90
12948;DHT22;6539;49.476;8.484;2022-10-16T10:01:56;20.50;99.90
12948;DHT22;6539;49.476;8.484;2022-10-16T10:04:38;19.90;99.90
12948;DHT22;6539;49.476;8.484;2022-10-16T10:07:26;20.20;99.90
12948;DHT22;6539;49.476;8.484;2022-10-16T10:09:58;20.00;99.90
12948;DHT22;6539;49.476;8.484;2022-10-16T10:12:28;20.40;99.90
12948;DHT22;6539;49.476;8.484;2022-10-16T10:15:11;20.40;99.90
12948;DHT22;6539;49.476;8.484;2022-10-16T10:17:51;20.80;99.90
12948;DHT22;6539;49.476;8.484;2022-10-16T10:22:58;21.40;99.90
12948;DHT22;6539;49.476;8.484;2022-10-16T10:25:49;21.40;99.90
12948;DHT22;6539;49.476;8.484;2022-10-16T10:34:45;21.50;99.90
12948;DHT22;6539;49.476;8.484;2022-10-16T10:37:35;21.50;99.90
12948;DHT22;6539;49.476;8.484;2022-10-16T10:46:23;21.80;99.90
12948;DHT22;6539;49.476;8.484;2022-10-16T10:57:23;22.40;99.90
12948;DHT22;6539;49.476;8.484;2022-10-16T11:06:05;23.20;99.90
12948;DHT22;6539;49.476;8.484;2022-10-16T11:08:43;23.20;99.90
12948;DHT22;6539;49.476;8.484;2022-10-16T11:17:42;23.60;99.90
12948;DHT22;6539;49.476;8.484;2022-10-16T11:20:13;23.70;99.90
12948;DHT22;6539;49.476;8.484;2022-10-16T11:22:49;23.70;99.90
12948;DHT22;6539;49.476;8.484;2022-10-16T11:25:32;23.40;99.90
12948;DHT22;6539;49.476;8.484;2022-10-16T11:31:19;23.90;99.90
12948;DHT22;6539;49.476;8.484;2022-10-16T11:33:59;23.70;99.90
12948;DHT22;6539;49.476;8.484;2022-10-16T11:39:34;24.40;99.90
12948;DHT22;6539;49.476;8.484;2022-10-16T11:42:11;24.40;99.90
12948;DHT22;6539;49.476;8.484;2022-10-16T11:50:29;23.70;99.90
12948;DHT22;6539;49.476;8.484;2022-10-16T11:55:56;23.00;99.90
12948;DHT22;6539;49.476;8.484;2022-10-16T12:07:06;22.50;99.90
12948;DHT22;6539;49.476;8.484;2022-10-16T12:09:42;22.20;99.90
12948;DHT22;6539;49.476;8.484;2022-10-16T12:12:38;22.20;99.90
12948;DHT22;6539;49.476;8.484;2022-10-16T12:15:29;22.00;99.90
12948;DHT22;6539;49.476;8.484;2022-10-16T12:18:00;22.00;99.90
12948;DHT22;6539;49.476;8.484;2022-10-16T12:20:33;21.70;99.90
12948;DHT22;6539;49.476;8.484;2022-10-16T12:23:06;21.80;99.90
12948;DHT22;6539;49.476;8.484;2022-10-16T12:25:57;21.70;99.90
12948;DHT22;6539;49.476;8.484;2022-10-16T12:28:32;21.70;99.90
12948;DHT22;6539;49.476;8.484;2022-10-16T12:31:01;21.60;99.90
12948;DHT22;6539;49.476;8.484;2022-10-16T12:33:37;21.80;99.90
12948;DHT22;6539;49.476;8.484;2022-10-16T12:36:16;21.90;99.90
12948;DHT22;6539;49.476;8.484;2022-10-16T12:38:54;21.60;99.90
12948;DHT22;6539;49.476;8.484;2022-10-16T12:41:38;21.80;99.90
12948;DHT22;6539;49.476;8.484;2022-10-16T12:44:20;21.90;99.90
12948;DHT22;6539;49.476;8.484;2022-10-16T12:46:49;21.30;99.90
12948;DHT22;6539;49.476;8.484;2022-10-16T12:49:30;21.80;99.90
12948;DHT22;6539;49.476;8.484;2022-10-16T12:51:58;21.60;99.90
12948;DHT22;6539;49.476;8.484;2022-10-16T13:05:37;21.70;99.90
12948;DHT22;6539;49.476;8.484;2022-10-16T13:11:15;21.80;99.90
12948;DHT22;6539;49.476;8.484;2022-10-16T13:20:34;21.90;99.90
12948;DHT22;6539;49.476;8.484;2022-10-16T13:23:26;21.40;99.90
12948;DHT22;6539;49.476;8.484;2022-10-16T13:26:31;21.80;99.90
12948;DHT22;6539;49.476;8.484;2022-10-16T13:29:01;21.40;99.90
12948;DHT22;6539;49.476;8.484;2022-10-16T13:31:28;22.10;99.90
12948;DHT22;6539;49.476;8.484;2022-10-16T13:33:58;21.60;99.90
12948;DHT22;6539;49.476;8.484;2022-10-16T13:36:35;21.20;99.90
12948;DHT22;6539;49.476;8.484;2022-10-16T13:42:04;21.60;99.90
12948;DHT22;6539;49.476;8.484;2022-10-16T13:44:39;21.40;99.90
12948;DHT22;6539;49.476;8.484;2022-10-16T13:47:19;21.60;99.90
12948;DHT22;6539;49.476;8.484;2022-10-16T13:50:06;21.40;99.90
12948;DHT22;6539;49.476;8.484;2022-10-16T13:52:38;21.10;99.90
12948;DHT22;6539;49.476;8.484;2022-10-16T13:55:14;21.30;99.90
12948;DHT22;6539;49.476;8.484;2022-10-16T13:57:42;21.40;99.90
12948;DHT22;6539;49.476;8.484;2022-10-16T14:00:26;21.10;99.90
12948;DHT22;6539;49.476;8.484;2022-10-16T14:03:03;21.30;99.90
12948;DHT22;6539;49.476;8.484;2022-10-16T14:05:32;21.00;99.90
12948;DHT22;6539;49.476;8.484;2022-10-16T14:08:00;21.60;99.90
12948;DHT22;6539;49.476;8.484;2022-10-16T14:10:32;21.00;99.90
12948;DHT22;6539;49.476;8.484;2022-10-16T14:13:06;21.20;99.90
12948;DHT22;6539;49.476;8.484;2022-10-16T14:15:35;21.20;99.90
12948;DHT22;6539;49.476;8.484;2022-10-16T14:18:02;21.20;99.90
12948;DHT22;6539;49.476;8.484;2022-10-16T14:20:33;21.10;99.90
12948;DHT22;6539;49.476;8.484;2022-10-16T14:23:18;21.20;99.90
12948;DHT22;6539;49.476;8.484;2022-10-16T14:28:38;20.90;99.90
12948;DHT22;6539;49.476;8.484;2022-10-16T14:31:29;21.40;99.90
12948;DHT22;6539;49.476;8.484;2022-10-16T14:33:57;21.20;99.90
12948;DHT22;6539;49.476;8.484;2022-10-16T14:36:27;21.20;99.90
12948;DHT22;6539;49.476;8.484;2022-10-16T14:39:02;21.10;99.90
12948;DHT22;6539;49.476;8.484;2022-10-16T14:41:45;20.80;99.90
12948;DHT22;6539;49.476;8.484;2022-10-16T14:44:16;20.90;99.90
12948;DHT22;6539;49.476;8.484;2022-10-16T14:46:44;21.00;99.90
12948;DHT22;6539;49.476;8.484;2022-10-16T14:51:40;20.90;99.90
12948;DHT22;6539;49.476;8.484;2022-10-16T14:54:15;20.90;99.90
12948;DHT22;6539;49.476;8.484;2022-10-16T14:56:56;20.90;99.90
12948;DHT22;6539;49.476;8.484;2022-10-16T14:59:46;21.00;99.90
12948;DHT22;6539;49.476;8.484;2022-10-16T15:02:29;21.10;99.90
12948;DHT22;6539;49.476;8.484;2022-10-16T15:05:04;20.90;99.90
12948;DHT22;6539;49.476;8.484;2022-10-16T15:07:54;21.00;99.90
12948;DHT22;6539;49.476;8.484;2022-10-16T15:10:22;20.80;99.90
12948;DHT22;6539;49.476;8.484;2022-10-16T15:12:56;21.20;99.90
12948;DHT22;6539;49.476;8.484;2022-10-16T15:15:37;21.00;99.90
12948;DHT22;6539;49.476;8.484;2022-10-16T15:18:09;21.10;99.90
12948;DHT22;6539;49.476;8.484;2022-10-16T15:20:36;21.40;99.90
12948;DHT22;6539;49.476;8.484;2022-10-16T15:23:06;20.90;99.90
12948;DHT22;6539;49.476;8.484;2022-10-16T15:25:51;20.70;99.90
12948;DHT22;6539;49.476;8.484;2022-10-16T15:28:19;21.10;99.90
12948;DHT22;6539;49.476;8.484;2022-10-16T15:30:46;20.60;99.90
12948;DHT22;6539;49.476;8.484;2022-10-16T15:33:20;20.70;99.90
12948;DHT22;6539;49.476;8.484;2022-10-16T15:35:52;21.20;99.90
12948;DHT22;6539;49.476;8.484;2022-10-16T15:38:19;20.70;99.90
12948;DHT22;6539;49.476;8.484;2022-10-16T15:40:48;20.70;99.90
12948;DHT22;6539;49.476;8.484;2022-10-16T15:43:16;21.20;99.90
12948;DHT22;6539;49.476;8.484;2022-10-16T15:46:02;20.80;99.90
12948;DHT22;6539;49.476;8.484;2022-10-16T15:48:32;20.90;99.90
12948;DHT22;6539;49.476;8.484;2022-10-16T15:51:00;21.10;99.90
12948;DHT22;6539;49.476;8.484;2022-10-16T15:53:30;20.70;99.90
12948;DHT22;6539;49.476;8.484;2022-10-16T15:56:05;20.80;99.90
12948;DHT22;6539;49.476;8.484;2022-10-16T15:58:34;20.60;99.90
12948;DHT22;6539;49.476;8.484;2022-10-16T16:01:01;20.50;99.90
12948;DHT22;6539;49.476;8.484;2022-10-16T16:03:31;20.60;99.90
12948;DHT22;6539;49.476;8.484;2022-10-16T16:05:57;20.40;99.90
12948;DHT22;6539;49.476;8.484;2022-10-16T16:08:24;20.70;99.90
12948;DHT22;6539;49.476;8.484;2022-10-16T16:11:02;20.70;99.90
12948;DHT22;6539;49.476;8.484;2022-10-16T16:13:30;20.90;99.90
12948;DHT22;6539;49.476;8.484;2022-10-16T16:15:58;20.30;99.90
12948;DHT22;6539;49.476;8.484;2022-10-16T16:18:24;20.70;99.90
12948;DHT22;6539;49.476;8.484;2022-10-16T16:20:51;20.20;99.90
12948;DHT22;6539;49.476;8.484;2022-10-16T16:23:20;20.30;99.90
12948;DHT22;6539;49.476;8.484;2022-10-16T16:26:02;20.60;99.90
12948;DHT22;6539;49.476;8.484;2022-10-16T16:28:38;20.60;99.90
12948;DHT22;6539;49.476;8.484;2022-10-16T16:31:07;20.30;99.90
12948;DHT22;6539;49.476;8.484;2022-10-16T16:33:33;20.30;99.90
12948;DHT22;6539;49.476;8.484;2022-10-16T16:36:02;20.10;99.90
12948;DHT22;6539;49.476;8.484;2022-10-16T16:38:33;20.40;99.90
12948;DHT22;6539;49.476;8.484;2022-10-16T16:40:59;20.20;99.90
12948;DHT22;6539;49.476;8.484;2022-10-16T16:43:27;20.10;99.90
12948;DHT22;6539;49.476;8.484;2022-10-16T16:45:54;20.50;99.90
12948;DHT22;6539;49.476;8.484;2022-10-16T16:48:22;20.60;99.90
12948;DHT22;6539;49.476;8.484;2022-10-16T16:50:48;20.30;99.90
12948;DHT22;6539;49.476;8.484;2022-10-16T16:53:18;20.30;99.90
12948;DHT22;6539;49.476;8.484;2022-10-16T16:55:49;20.40;99.90
12948;DHT22;6539;49.476;8.484;2022-10-16T16:58:15;20.30;99.90
12948;DHT22;6539;49.476;8.484;2022-10-16T17:00:47;19.90;99.90
12948;DHT22;6539;49.476;8.484;2022-10-16T17:03:13;20.10;99.90
12948;DHT22;6539;49.476;8.484;2022-10-16T17:05:38;20.10;99.90
12948;DHT22;6539;49.476;8.484;2022-10-16T17:08:06;20.00;99.90
12948;DHT22;6539;49.476;8.484;2022-10-16T17:10:42;20.30;99.90
12948;DHT22;6539;49.476;8.484;2022-10-16T17:13:08;19.80;99.90
12948;DHT22;6539;49.476;8.484;2022-10-16T17:15:34;20.40;99.90
12948;DHT22;6539;49.476;8.484;2022-10-16T17:18:00;19.70;99.90
12948;DHT22;6539;49.476;8.484;2022-10-16T17:20:25;19.90;99.90
12948;DHT22;6539;49.476;8.484;2022-10-16T17:22:56;19.80;99.90
12948;DHT22;6539;49.476;8.484;2022-10-16T17:25:21;19.80;99.90
12948;DHT22;6539;49.476;8.484;2022-10-16T17:27:47;19.80;99.90
12948;DHT22;6539;49.476;8.484;2022-10-16T17:30:13;19.60;99.90
12948;DHT22;6539;49.476;8.484;2022-10-16T17:32:39;20.00;99.90
12948;DHT22;6539;49.476;8.484;2022-10-16T17:35:05;19.40;99.90
12948;DHT22;6539;49.476;8.484;2022-10-16T17:37:31;19.50;99.90
12948;DHT22;6539;49.476;8.484;2022-10-16T17:39:56;20.00;99.90
12948;DHT22;6539;49.476;8.484;2022-10-16T17:42:22;19.80;99.90
12948;DHT22;6539;49.476;8.484;2022-10-16T17:44:50;19.40;99.90
12948;DHT22;6539;49.476;8.484;2022-10-16T17:47:16;19.50;99.90
12948;DHT22;6539;49.476;8.484;2022-10-16T17:49:42;19.90;99.90
12948;DHT22;6539;49.476;8.484;2022-10-16T17:52:10;19.60;99.90
12948;DHT22;6539;49.476;8.484;2022-10-16T17:54:35;19.70;99.90
12948;DHT22;6539;49.476;8.484;2022-10-16T17:57:03;19.60;99.90
12948;DHT22;6539;49.476;8.484;2022-10-16T18:04:29;19.10;99.90
12948;DHT22;6539;49.476;8.484;2022-10-16T18:06:54;19.60;99.90
12948;DHT22;6539;49.476;8.484;2022-10-16T18:09:23;19.10;99.90
12948;DHT22;6539;49.476;8.484;2022-10-16T18:11:51;19.60;99.90
12948;DHT22;6539;49.476;8.484;2022-10-16T18:14:25;19.30;99.90
12948;DHT22;6539;49.476;8.484;2022-10-16T18:16:55;19.10;99.90
12948;DHT22;6539;49.476;8.484;2022-10-16T18:19:24;19.30;99.90
12948;DHT22;6539;49.476;8.484;2022-10-16T18:21:55;19.40;99.90
12948;DHT22;6539;49.476;8.484;2022-10-16T18:24:24;19.60;99.90
12948;DHT22;6539;49.476;8.484;2022-10-16T18:26:54;19.10;99.90
12948;DHT22;6539;49.476;8.484;2022-10-16T18:29:25;19.20;99.90
12948;DHT22;6539;49.476;8.484;2022-10-16T18:31:52;18.90;99.90
12948;DHT22;6539;49.476;8.484;2022-10-16T18:34:18;18.50;99.90
12948;DHT22;6539;49.476;8.484;2022-10-16T18:36:44;19.30;99.90
12948;DHT22;6539;49.476;8.484;2022-10-16T18:39:13;19.00;99.90
12948;DHT22;6539;49.476;8.484;2022-10-16T18:41:42;19.10;99.90
12948;DHT22;6539;49.476;8.484;2022-10-16T18:44:13;19.10;99.90
12948;DHT22;6539;49.476;8.484;2022-10-16T18:46:42;19.10;99.90
12948;DHT22;6539;49.476;8.484;2022-10-16T18:49:10;19.30;99.90
12948;DHT22;6539;49.476;8.484;2022-10-16T18:51:39;19.20;99.90
12948;DHT22;6539;49.476;8.484;2022-10-16T18:54:08;18.90;99.90
12948;DHT22;6539;49.476;8.484;2022-10-16T18:56:36;19.00;99.90
12948;DHT22;6539;49.476;8.484;2022-10-16T18:59:05;19.00;99.90
12948;DHT22;6539;49.476;8.484;2022-10-16T19:01:34;18.80;99.90
12948;DHT22;6539;49.476;8.484;2022-10-16T19:04:07;18.80;99.90
12948;DHT22;6539;49.476;8.484;2022-10-16T19:06:40;18.90;99.90
12948;DHT22;6539;49.476;8.484;2022-10-16T19:09:08;18.70;99.90
12948;DHT22;6539;49.476;8.484;2022-10-16T19:11:35;19.20;99.90
12948;DHT22;6539;49.476;8.484;2022-10-16T19:14:01;18.60;99.90
12948;DHT22;6539;49.476;8.484;2022-10-16T19:16:34;18.60;99.90
12948;DHT22;6539;49.476;8.484;2022-10-16T19:19:03;18.60;99.90
12948;DHT22;6539;49.476;8.484;2022-10-16T19:21:35;18.70;99.90
12948;DHT22;6539;49.476;8.484;2022-10-16T19:24:04;19.00;99.90
12948;DHT22;6539;49.476;8.484;2022-10-16T19:26:37;18.80;99.90
12948;DHT22;6539;49.476;8.484;2022-10-16T19:29:08;18.40;99.90
12948;DHT22;6539;49.476;8.484;2022-10-16T19:34:08;18.70;99.90
12948;DHT22;6539;49.476;8.484;2022-10-16T19:36:37;18.80;99.90